createdAt,value
2018-05-09T00:00:34.103Z,6.33
2018-05-09T00:03:00.880Z,7.33
2018-05-09T00:05:27.726Z,5.33
2018-05-09T00:07:54.525Z,4.73
2018-05-09T00:10:21.462Z,5.30
2018-05-09T00:12:48.256Z,6.53
2018-05-09T00:15:15.835Z,9.50
2018-05-09T00:17:42.677Z,6.83
2018-05-09T00:20:09.527Z,11.00
2018-05-09T00:25:47.805Z,6.03
2018-05-09T00:28:14.632Z,5.40
2018-05-09T00:30:41.449Z,5.23
2018-05-09T00:33:08.200Z,6.67
2018-05-09T00:35:35.075Z,5.37
2018-05-09T00:38:01.842Z,6.10
2018-05-09T00:40:28.645Z,5.93
2018-05-09T00:42:56.244Z,7.27
2018-05-09T00:45:23.156Z,6.83
2018-05-09T00:47:50.732Z,7.80
2018-05-09T00:50:17.641Z,5.43
2018-05-09T00:52:44.425Z,7.37
2018-05-09T00:55:11.212Z,9.27
2018-05-09T00:57:37.972Z,6.50
2018-05-09T01:00:04.834Z,4.87
2018-05-09T01:02:32.461Z,6.53
2018-05-09T01:04:59.344Z,9.20
2018-05-09T01:07:27.667Z,5.87
2018-05-09T01:09:54.503Z,5.60
2018-05-09T01:12:21.382Z,5.80
2018-05-09T01:14:48.184Z,5.57
2018-05-09T01:20:31.480Z,8.57
2018-05-09T01:22:58.376Z,6.53
2018-05-09T01:28:49.554Z,5.73
2018-05-09T01:34:49.568Z,9.27
2018-05-09T01:37:16.324Z,8.33
2018-05-09T01:39:43.149Z,6.83
2018-05-09T01:42:09.958Z,7.53
2018-05-09T01:44:37.610Z,5.83
2018-05-09T01:47:05.965Z,7.43
2018-05-09T01:49:32.782Z,7.03
2018-05-09T01:51:59.631Z,6.57
2018-05-09T01:54:26.568Z,9.40
2018-05-09T01:56:53.377Z,8.80
2018-05-09T01:59:20.228Z,6.63
2018-05-09T02:01:47.883Z,7.03
2018-05-09T02:04:14.740Z,7.53
2018-05-09T02:06:42.316Z,6.53
2018-05-09T02:09:09.871Z,9.47
2018-05-09T02:11:37.341Z,6.97
2018-05-09T02:14:04.904Z,11.23
2018-05-09T02:16:31.764Z,8.00
2018-05-09T02:18:58.528Z,7.90
2018-05-09T02:21:25.324Z,9.00
2018-05-09T02:23:52.829Z,9.33
2018-05-09T02:26:19.589Z,9.00
2018-05-09T02:28:46.533Z,10.13
2018-05-09T02:31:13.708Z,7.70
2018-05-09T02:33:40.537Z,7.20
2018-05-09T02:36:09.001Z,8.60
2018-05-09T02:38:35.961Z,10.17
2018-05-09T02:41:03.014Z,7.10
2018-05-09T02:43:29.960Z,9.23
2018-05-09T02:45:57.019Z,10.37
2018-05-09T02:48:23.959Z,7.53
2018-05-09T02:50:50.902Z,10.13
2018-05-09T02:53:17.732Z,7.80
2018-05-09T02:55:44.800Z,10.23
2018-05-09T02:58:11.856Z,10.43
2018-05-09T03:00:38.795Z,9.33
2018-05-09T03:03:05.781Z,10.63
2018-05-09T03:05:33.714Z,10.07
2018-05-09T03:08:00.700Z,10.40
2018-05-09T03:10:27.711Z,9.57
2018-05-09T03:12:54.770Z,9.70
2018-05-09T03:15:22.022Z,11.07
2018-05-09T03:17:49.070Z,8.53
2018-05-09T03:20:16.132Z,10.40
2018-05-09T03:22:43.178Z,9.57
2018-05-09T03:25:10.212Z,10.77
2018-05-09T03:27:37.258Z,9.63
2018-05-09T03:30:04.318Z,9.43
2018-05-09T03:32:31.368Z,11.83
2018-05-09T03:34:58.309Z,9.73
2018-05-09T03:37:25.270Z,10.30
2018-05-09T03:39:52.301Z,10.67
2018-05-09T03:42:19.260Z,10.33
2018-05-09T03:44:46.330Z,9.43
2018-05-09T03:47:14.078Z,10.50
2018-05-09T03:49:41.017Z,9.73
2018-05-09T03:52:08.010Z,10.73
2018-05-09T03:54:35.651Z,10.20
2018-05-09T03:57:02.435Z,10.20
2018-05-09T03:59:29.180Z,9.87
2018-05-09T04:02:08.141Z,8.80
2018-05-09T04:04:47.176Z,10.60
2018-05-09T04:07:26.056Z,8.43
2018-05-09T04:09:55.972Z,8.17
2018-05-09T04:12:23.527Z,8.27
2018-05-09T04:14:51.202Z,9.23
2018-05-09T04:17:18.048Z,7.90
2018-05-09T04:19:44.893Z,9.97
2018-05-09T04:22:11.719Z,11.10
2018-05-09T04:24:39.351Z,9.93
2018-05-09T04:27:06.140Z,9.53
2018-05-09T04:29:32.975Z,8.27
2018-05-09T04:32:00.489Z,8.37
2018-05-09T04:34:27.438Z,10.13
2018-05-09T04:36:54.360Z,8.77
2018-05-09T04:39:21.228Z,8.60
2018-05-09T04:41:48.154Z,9.87
2018-05-09T04:44:15.043Z,8.70
2018-05-09T04:46:42.597Z,8.97
2018-05-09T04:49:09.458Z,9.13
2018-05-09T04:51:36.300Z,8.30
2018-05-09T04:54:03.943Z,8.93
2018-05-09T04:56:30.836Z,12.37
2018-05-09T04:58:57.736Z,9.43
2018-05-09T05:01:24.525Z,9.00
2018-05-09T05:03:51.324Z,9.27
2018-05-09T05:06:18.208Z,8.83
2018-05-09T05:08:45.153Z,9.43
2018-05-09T05:11:21.664Z,8.00
2018-05-09T05:13:48.484Z,10.07
2018-05-09T05:16:15.280Z,10.27
2018-05-09T05:18:42.122Z,8.27
2018-05-09T05:21:10.396Z,8.43
2018-05-09T05:23:41.163Z,7.97
2018-05-09T05:26:10.228Z,9.97
2018-05-09T05:28:37.997Z,9.10
2018-05-09T05:31:04.957Z,8.40
2018-05-09T05:33:31.787Z,9.00
2018-05-09T05:35:58.724Z,8.97
2018-05-09T05:38:25.683Z,11.20
2018-05-09T05:40:52.733Z,8.43
2018-05-09T05:43:21.965Z,8.40
2018-05-09T05:45:49.545Z,8.83
2018-05-09T05:48:16.375Z,9.07
2018-05-09T05:50:43.310Z,9.40
2018-05-09T05:53:10.814Z,10.50
2018-05-09T05:55:52.508Z,15.13
2018-05-09T05:58:19.285Z,15.13
2018-05-09T06:00:46.079Z,14.40
2018-05-09T06:03:12.924Z,12.10
2018-05-09T06:05:39.735Z,15.17
2018-05-09T06:08:07.323Z,11.70
2018-05-09T06:10:34.105Z,11.87
2018-05-09T06:13:00.986Z,18.43
2018-05-09T06:15:28.533Z,19.37
2018-05-09T06:17:55.289Z,19.57
2018-05-09T06:20:22.206Z,15.43
2018-05-09T06:22:49.001Z,15.70
2018-05-09T06:25:16.835Z,17.97
2018-05-09T06:27:43.620Z,19.30
2018-05-09T06:30:10.432Z,17.97
2018-05-09T06:32:37.223Z,19.53
2018-05-09T06:35:04.004Z,17.43
2018-05-09T06:37:30.920Z,17.23
2018-05-09T06:39:57.686Z,16.37
2018-05-09T06:42:24.564Z,16.37
2018-05-09T06:44:52.108Z,15.83
2018-05-09T06:47:18.973Z,19.20
2018-05-09T06:49:46.611Z,14.80
2018-05-09T06:52:13.542Z,16.77
2018-05-09T06:54:40.251Z,14.27
2018-05-09T06:57:07.075Z,15.87
2018-05-09T06:59:34.671Z,16.50
2018-05-09T07:02:01.508Z,16.70
2018-05-09T07:04:28.423Z,14.03
2018-05-09T07:06:55.957Z,14.43
2018-05-09T07:09:22.868Z,14.27
2018-05-09T07:11:49.692Z,12.90
2018-05-09T07:17:00.778Z,12.70
2018-05-09T07:19:28.300Z,14.57
2018-05-09T07:21:55.161Z,13.50
2018-05-09T07:24:22.001Z,15.67
2018-05-09T07:26:48.943Z,14.93
2018-05-09T07:29:16.591Z,16.57
2018-05-09T07:31:43.498Z,16.50
2018-05-09T07:34:10.377Z,17.90
2018-05-09T07:36:37.277Z,17.50
2018-05-09T07:39:04.922Z,21.70
2018-05-09T07:41:31.756Z,21.57
2018-05-09T07:43:58.618Z,20.13
2018-05-09T07:46:26.128Z,21.37
2018-05-09T07:48:53.034Z,21.87
2018-05-09T07:51:20.732Z,20.40
2018-05-09T07:53:47.614Z,22.60
2018-05-09T07:56:14.391Z,25.17
2018-05-09T07:58:41.996Z,23.40
2018-05-09T08:01:10.149Z,20.03
2018-05-09T08:03:36.999Z,23.53
2018-05-09T08:06:03.896Z,21.10
2018-05-09T08:08:30.735Z,25.13
2018-05-09T08:10:58.430Z,19.10
2018-05-09T08:13:26.001Z,20.63
2018-05-09T08:15:52.734Z,23.30
2018-05-09T08:18:20.301Z,19.23
2018-05-09T08:20:47.110Z,24.23
2018-05-09T08:23:13.859Z,18.83
2018-05-09T08:25:40.620Z,18.57
2018-05-09T08:28:08.234Z,22.40
2018-05-09T08:30:35.408Z,23.07
2018-05-09T08:33:02.181Z,20.53
2018-05-09T08:35:29.817Z,22.20
2018-05-09T08:37:56.630Z,19.10
2018-05-09T08:40:23.632Z,17.57
2018-05-09T08:42:51.113Z,15.20
2018-05-09T08:45:18.022Z,16.77
2018-05-09T08:47:44.850Z,16.17
2018-05-09T08:50:11.713Z,16.63
2018-05-09T08:52:38.589Z,16.70
2018-05-09T08:55:05.419Z,17.30
2018-05-09T08:57:33.005Z,24.10
2018-05-09T08:59:59.929Z,17.97
2018-05-09T09:02:26.814Z,20.07
2018-05-09T09:04:53.636Z,18.87
2018-05-09T09:07:20.448Z,20.13
2018-05-09T09:09:47.271Z,19.40
2018-05-09T09:12:14.159Z,18.90
2018-05-09T09:17:45.389Z,14.53
2018-05-09T09:20:12.138Z,13.57
2018-05-09T09:22:38.949Z,19.03
2018-05-09T09:25:05.843Z,19.70
2018-05-09T09:27:32.631Z,22.57
2018-05-09T09:29:59.455Z,20.53
2018-05-09T09:32:26.301Z,17.70
2018-05-09T09:34:53.845Z,18.50
2018-05-09T09:37:21.459Z,20.17
2018-05-09T09:43:15.769Z,14.23
2018-05-09T09:48:58.376Z,18.83
2018-05-09T09:51:25.897Z,17.60
2018-05-09T09:56:57.824Z,13.87
2018-05-09T09:59:24.628Z,19.37
2018-05-09T10:01:51.511Z,14.77
2018-05-09T10:04:19.120Z,14.17
2018-05-09T10:06:45.958Z,16.60
2018-05-09T10:09:12.808Z,21.23
2018-05-09T10:11:39.625Z,18.20
2018-05-09T10:14:07.213Z,14.87
2018-05-09T10:16:34.022Z,18.40
2018-05-09T10:19:00.885Z,15.30
2018-05-09T10:21:27.630Z,16.53
2018-05-09T10:23:54.536Z,14.33
2018-05-09T10:26:22.141Z,15.73
2018-05-09T10:28:49.682Z,16.67
2018-05-09T10:31:16.596Z,11.93
2018-05-09T10:33:43.413Z,13.63
2018-05-09T10:36:11.589Z,12.20
2018-05-09T10:38:38.506Z,13.10
2018-05-09T10:41:05.227Z,15.33
2018-05-09T10:43:32.837Z,13.77
2018-05-09T10:45:59.769Z,13.60
2018-05-09T10:48:26.581Z,15.60
2018-05-09T10:50:53.487Z,14.10
2018-05-09T10:53:20.230Z,13.30
2018-05-09T10:55:46.961Z,13.03
2018-05-09T11:01:43.828Z,15.37
2018-05-09T11:04:10.559Z,15.03
2018-05-09T11:06:37.410Z,12.10
2018-05-09T11:09:05.359Z,10.50
2018-05-09T11:11:32.233Z,11.60
2018-05-09T11:13:58.985Z,10.83
2018-05-09T11:16:25.868Z,11.90
2018-05-09T11:18:53.463Z,14.20
2018-05-09T11:21:20.781Z,13.87
2018-05-09T11:23:48.487Z,11.50
2018-05-09T11:26:15.273Z,10.57
2018-05-09T11:28:42.098Z,17.50
2018-05-09T11:31:09.023Z,12.30
2018-05-09T11:33:35.908Z,13.37
2018-05-09T11:36:02.770Z,12.90
2018-05-09T11:38:30.333Z,14.60
2018-05-09T11:40:57.894Z,14.40
2018-05-09T11:43:25.464Z,19.50
2018-05-09T11:45:53.009Z,18.20
2018-05-09T11:48:20.601Z,15.73
2018-05-09T11:50:47.512Z,16.67
2018-05-09T11:53:14.482Z,16.23
2018-05-09T11:55:41.239Z,23.27
2018-05-09T11:58:08.024Z,18.80
2018-05-09T12:00:34.811Z,16.43
2018-05-09T12:03:01.637Z,19.00
2018-05-09T12:05:29.197Z,15.77
2018-05-09T12:07:56.787Z,24.17
2018-05-09T12:10:24.386Z,20.47
2018-05-09T12:12:51.155Z,16.90
2018-05-09T12:15:50.709Z,18.00
2018-05-09T12:18:17.644Z,17.60
2018-05-09T12:20:45.176Z,17.07
2018-05-09T12:23:12.022Z,17.50
2018-05-09T12:25:38.869Z,20.17
2018-05-09T12:28:05.624Z,19.30
2018-05-09T12:30:33.206Z,16.83
2018-05-09T12:33:00.057Z,14.30
2018-05-09T12:35:27.267Z,17.47
2018-05-09T12:37:54.116Z,14.97
2018-05-09T12:40:21.084Z,12.67
2018-05-09T12:42:48.634Z,14.03
2018-05-09T12:45:15.418Z,15.03
2018-05-09T12:47:43.017Z,16.27
2018-05-09T12:50:09.862Z,16.07
2018-05-09T12:52:36.744Z,12.40
2018-05-09T12:55:04.423Z,12.73
2018-05-09T12:57:31.240Z,12.80
2018-05-09T12:59:58.876Z,12.27
2018-05-09T13:02:25.629Z,12.97
2018-05-09T13:04:52.401Z,15.40
2018-05-09T13:07:19.289Z,11.87
2018-05-09T13:09:46.149Z,10.80
2018-05-09T13:12:12.948Z,10.90
2018-05-09T13:15:13.120Z,11.20
2018-05-09T13:17:39.888Z,14.57
2018-05-09T13:20:06.680Z,19.27
2018-05-09T13:22:33.572Z,16.93
2018-05-09T13:25:00.393Z,16.27
2018-05-09T13:27:27.235Z,15.83
2018-05-09T13:29:54.032Z,12.40
2018-05-09T13:32:21.640Z,16.37
2018-05-09T13:34:48.405Z,13.93
2018-05-09T13:37:15.204Z,17.10
2018-05-09T13:39:42.094Z,11.10
2018-05-09T13:42:09.043Z,13.30
2018-05-09T13:44:35.906Z,16.50
2018-05-09T13:47:02.725Z,11.77
2018-05-09T13:49:29.565Z,11.60
2018-05-09T13:51:56.414Z,9.87
2018-05-09T13:54:23.524Z,8.07
2018-05-09T13:56:50.391Z,9.67
2018-05-09T13:59:17.154Z,10.37
2018-05-09T14:01:43.942Z,10.63
2018-05-09T14:04:11.516Z,9.07
2018-05-09T14:06:38.451Z,12.60
2018-05-09T14:09:06.075Z,11.20
2018-05-09T14:11:32.865Z,9.63
2018-05-09T14:13:59.700Z,9.97
2018-05-09T14:16:41.619Z,12.20
2018-05-09T14:19:08.429Z,9.63
2018-05-09T14:21:35.268Z,9.73
2018-05-09T14:24:02.139Z,8.07
2018-05-09T14:26:29.083Z,9.50
2018-05-09T14:28:55.946Z,7.93
2018-05-09T14:31:22.795Z,8.87
2018-05-09T14:33:49.680Z,8.10
2018-05-09T14:36:16.487Z,9.97
2018-05-09T14:38:43.303Z,8.77
2018-05-09T14:41:11.997Z,10.50
2018-05-09T14:43:38.872Z,9.67
2018-05-09T14:46:05.634Z,8.97
2018-05-09T14:48:32.443Z,9.87
2018-05-09T14:50:59.275Z,11.03
2018-05-09T14:53:26.089Z,13.37
2018-05-09T14:55:52.876Z,10.23
2018-05-09T14:58:19.757Z,10.60
2018-05-09T15:00:46.581Z,8.83
2018-05-09T15:03:13.379Z,12.63
2018-05-09T15:05:40.972Z,9.77
2018-05-09T15:08:08.597Z,10.23
2018-05-09T15:10:35.628Z,11.30
2018-05-09T15:13:02.470Z,8.23
2018-05-09T15:16:02.409Z,6.60
2018-05-09T15:18:29.277Z,11.97
2018-05-09T15:20:57.089Z,8.40
2018-05-09T15:23:23.927Z,8.57
2018-05-09T15:25:50.765Z,7.80
2018-05-09T15:28:17.543Z,9.67
2018-05-09T15:30:44.360Z,6.93
2018-05-09T15:33:11.211Z,6.80
2018-05-09T15:39:05.949Z,7.73
2018-05-09T15:45:01.527Z,7.83
2018-05-09T15:50:47.236Z,6.33
2018-05-09T15:53:14.865Z,5.07
2018-05-09T15:55:41.751Z,6.83
2018-05-09T15:58:08.603Z,7.40
2018-05-09T16:00:35.717Z,5.57
2018-05-09T16:03:02.578Z,8.77
2018-05-09T16:05:30.091Z,6.40
2018-05-09T16:07:57.733Z,7.20
2018-05-09T16:10:24.694Z,11.00
2018-05-09T16:12:51.567Z,6.93
2018-05-09T16:15:52.131Z,8.10
2018-05-09T16:18:19.731Z,7.87
2018-05-09T16:20:46.612Z,11.17
2018-05-09T16:23:13.436Z,8.13
2018-05-09T16:25:40.278Z,11.27
2018-05-09T16:28:07.124Z,6.97
2018-05-09T16:30:34.081Z,10.20
2018-05-09T16:33:01.051Z,6.37
2018-05-09T16:35:27.930Z,7.80
2018-05-09T16:37:54.710Z,8.53
2018-05-09T16:40:21.533Z,8.73
2018-05-09T16:42:48.421Z,10.50
2018-05-09T16:45:15.245Z,12.10
2018-05-09T16:47:42.109Z,7.63
2018-05-09T16:50:08.974Z,7.53
2018-05-09T16:52:36.518Z,5.93
2018-05-09T16:55:03.404Z,6.03
2018-05-09T16:57:30.216Z,6.57
2018-05-09T16:59:57.040Z,6.73
2018-05-09T17:02:23.923Z,8.33
2018-05-09T17:04:51.491Z,7.80
2018-05-09T17:07:20.071Z,8.47
2018-05-09T17:10:01.737Z,6.67
2018-05-09T17:12:28.554Z,8.47
2018-05-09T17:17:55.683Z,7.43
2018-05-09T17:20:23.378Z,9.53
2018-05-09T17:22:50.177Z,6.27
2018-05-09T17:25:17.077Z,7.13
2018-05-09T17:27:43.872Z,6.10
2018-05-09T17:30:10.666Z,6.50
2018-05-09T17:32:37.543Z,8.13
2018-05-09T17:35:04.388Z,6.03
2018-05-09T17:37:31.170Z,6.53
2018-05-09T17:39:58.699Z,6.00
2018-05-09T17:42:25.600Z,6.27
2018-05-09T17:44:52.577Z,7.80
2018-05-09T17:47:19.631Z,7.80
2018-05-09T17:49:46.575Z,5.73
2018-05-09T17:52:13.426Z,6.13
2018-05-09T17:54:40.283Z,5.87
2018-05-09T17:57:07.211Z,4.80
2018-05-09T17:59:34.120Z,6.53
2018-05-09T18:02:00.979Z,5.87
2018-05-09T18:04:27.849Z,7.37
2018-05-09T18:06:54.745Z,7.27
2018-05-09T18:09:21.707Z,7.60
2018-05-09T18:11:48.568Z,7.77
2018-05-09T18:14:28.954Z,7.97
2018-05-09T18:17:36.701Z,6.20
2018-05-09T18:20:04.313Z,8.37
2018-05-09T18:22:31.003Z,6.77
2018-05-09T18:24:58.564Z,8.40
2018-05-09T18:27:26.104Z,6.77
2018-05-09T18:29:53.755Z,5.63
2018-05-09T18:32:20.605Z,6.77
2018-05-09T18:34:47.563Z,6.90
2018-05-09T18:37:14.414Z,10.53
2018-05-09T18:39:41.276Z,8.60
2018-05-09T18:42:08.377Z,35.67
2018-05-09T18:44:35.223Z,10.90
2018-05-09T18:47:02.167Z,10.10
2018-05-09T18:49:29.071Z,7.93
2018-05-09T18:51:56.506Z,8.57
2018-05-09T18:54:23.316Z,7.60
2018-05-09T18:56:50.164Z,6.63
2018-05-09T18:59:17.113Z,8.13
2018-05-09T19:01:44.094Z,10.43
2018-05-09T19:04:12.440Z,10.60
2018-05-09T19:06:39.242Z,7.97
2018-05-09T19:09:06.091Z,7.27
2018-05-09T19:11:32.869Z,8.50
2018-05-09T19:13:59.827Z,9.97
2018-05-09T19:19:37.005Z,10.00
2018-05-09T19:22:03.956Z,6.13
2018-05-09T19:24:30.801Z,6.13
2018-05-09T19:26:57.575Z,8.07
2018-05-09T19:29:24.419Z,5.70
2018-05-09T19:31:58.119Z,6.00
2018-05-09T19:34:24.928Z,6.77
2018-05-09T19:36:51.912Z,6.07
2018-05-09T19:39:18.706Z,5.60
2018-05-09T19:41:46.658Z,7.03
2018-05-09T19:44:13.568Z,7.17
2018-05-09T19:46:40.780Z,8.63
2018-05-09T19:49:07.660Z,5.37
2018-05-09T19:51:34.485Z,7.33
2018-05-09T19:54:01.870Z,8.17
2018-05-09T19:56:28.740Z,9.27
2018-05-09T19:58:56.797Z,8.07
2018-05-09T20:01:23.839Z,6.33
2018-05-09T20:03:50.771Z,6.00
2018-05-09T20:06:17.730Z,6.37
2018-05-09T20:08:44.673Z,7.93
2018-05-09T20:11:13.878Z,8.33
2018-05-09T20:13:41.453Z,5.43
2018-05-09T20:19:13.948Z,5.80
2018-05-09T20:21:40.998Z,7.20
2018-05-09T20:24:07.776Z,8.13
2018-05-09T20:27:06.600Z,6.43
2018-05-09T20:29:33.689Z,6.57
2018-05-09T20:32:12.732Z,6.23
2018-05-09T20:34:39.552Z,6.57
2018-05-09T20:37:06.396Z,7.60
2018-05-09T20:39:33.445Z,6.60
2018-05-09T20:42:00.412Z,5.63
2018-05-09T20:44:27.443Z,7.57
2018-05-09T20:46:54.395Z,7.93
2018-05-09T20:49:21.442Z,6.37
2018-05-09T20:51:51.473Z,10.80
2018-05-09T20:54:19.788Z,5.77
2018-05-09T20:56:47.606Z,6.87
2018-05-09T20:59:14.862Z,7.53
2018-05-09T21:01:54.814Z,9.80
2018-05-09T21:04:21.767Z,6.83
2018-05-09T21:06:48.615Z,6.20
2018-05-09T21:09:15.752Z,6.50
2018-05-09T21:11:55.379Z,5.73
2018-05-09T21:14:32.375Z,5.90
2018-05-09T21:17:15.645Z,6.90
2018-05-09T21:19:43.383Z,6.80
2018-05-09T21:22:10.336Z,7.03
2018-05-09T21:24:37.380Z,7.73
2018-05-09T21:27:04.310Z,7.07
2018-05-09T21:29:31.169Z,5.00
2018-05-09T21:31:58.015Z,5.37
2018-05-09T21:34:25.791Z,5.13
2018-05-09T21:36:52.839Z,5.43
2018-05-09T21:39:19.889Z,6.43
2018-05-09T21:41:46.725Z,6.60
2018-05-09T21:44:13.465Z,4.87
2018-05-09T21:46:40.311Z,6.03
2018-05-09T21:49:07.234Z,5.50
2018-05-09T21:51:34.843Z,7.13
2018-05-09T21:54:02.501Z,5.13
2018-05-09T21:56:31.026Z,5.93
2018-05-09T21:58:58.122Z,7.43
2018-05-09T22:01:40.634Z,5.07
2018-05-09T22:04:08.205Z,4.40
2018-05-09T22:06:35.039Z,5.63
2018-05-09T22:09:02.124Z,6.30
2018-05-09T22:11:29.853Z,4.73
2018-05-09T22:13:56.804Z,7.00
2018-05-09T22:16:23.861Z,5.83
2018-05-09T22:18:50.866Z,6.03
2018-05-09T22:21:18.574Z,4.57
2018-05-09T22:23:45.409Z,10.80
2018-05-09T22:26:13.956Z,6.17
2018-05-09T22:28:40.945Z,4.63
2018-05-09T22:31:07.996Z,5.17
2018-05-09T22:36:59.860Z,4.90
2018-05-09T22:39:26.804Z,5.50
2018-05-09T22:42:37.567Z,4.83
2018-05-09T22:45:04.518Z,5.53
2018-05-09T22:50:34.969Z,4.33
2018-05-09T22:53:01.958Z,6.17
2018-05-09T22:55:29.684Z,4.93
2018-05-09T22:57:56.640Z,5.77
2018-05-09T23:00:23.680Z,5.10
2018-05-09T23:02:50.737Z,6.03
2018-05-09T23:05:17.551Z,6.23
2018-05-09T23:07:44.519Z,7.27
2018-05-09T23:10:11.532Z,4.93
2018-05-09T23:12:38.429Z,6.57
2018-05-09T23:15:05.992Z,9.07
2018-05-09T23:17:32.697Z,7.43
2018-05-09T23:19:59.671Z,9.23
2018-05-09T23:22:26.490Z,6.10
2018-05-09T23:24:53.459Z,6.17
2018-05-09T23:27:20.407Z,6.17
2018-05-09T23:29:47.363Z,7.67
2018-05-09T23:35:07.665Z,6.70
2018-05-09T23:37:34.617Z,5.93
2018-05-09T23:40:01.460Z,7.33
2018-05-09T23:42:28.305Z,6.17
2018-05-09T23:44:55.150Z,5.97
2018-05-09T23:47:22.007Z,6.13
2018-05-09T23:49:48.835Z,5.27
2018-05-09T23:52:15.831Z,6.90
2018-05-09T23:54:42.843Z,8.97
2018-05-09T23:57:09.790Z,8.07
2018-05-09T23:59:36.839Z,7.27
